Time;durP1;ratioP1;P1;durP2;ratioP2;P2;SDS_P1;SDS_P2;PMS_P1;PMS_P2;Temp;Humidity;BMP_temperature;BMP_pressure;BME280_temperature;BME280_humidity;BME280_pressure;Samples;Min_cycle;Max_cycle;Signal;HPM_P1;HPM_P2
2021/12/14 00:00:23;;;;;;;4.10;3.22;;;;;;;-0.18;65.45;94182.06;4947152;28;20074;-74
2021/12/14 00:02:52;;;;;;;4.10;3.50;;;;;;;-0.17;65.71;94177.63;4946764;28;20042;-74
2021/12/14 00:05:21;;;;;;;6.28;3.70;;;;;;;-0.26;64.92;94156.34;4950769;28;20374;-74
2021/12/14 00:07:48;;;;;;;2.88;2.58;;;;;;;-0.27;65.27;94186.09;4951863;28;20049;-75
2021/12/14 00:10:49;;;;;;;3.15;2.67;;;;;;;-0.34;65.60;94185.47;4946340;28;20541;-74
2021/12/14 00:13:31;;;;;;;3.17;2.88;;;;;;;-0.28;66.20;94192.34;4957163;28;20476;-74
2021/12/14 00:15:58;;;;;;;3.60;3.05;;;;;;;-0.26;65.67;94187.69;4949479;28;20604;-74
2021/12/14 00:18:24;;;;;;;5.20;3.25;;;;;;;-0.34;65.47;94161.97;4952980;28;20023;-74
2021/12/14 00:20:55;;;;;;;5.43;3.15;;;;;;;-0.21;65.62;94185.16;4945847;28;20038;-74
2021/12/14 00:26:16;;;;;;;2.95;2.75;;;;;;;0.05;64.68;94190.81;4941685;28;20089;-74
2021/12/14 00:28:43;;;;;;;5.15;3.30;;;;;;;-0.29;64.93;94159.44;4954418;28;20050;-74
2021/12/14 00:31:14;;;;;;;4.43;3.10;;;;;;;-0.19;64.67;94156.94;4952517;28;20151;-75
2021/12/14 00:33:40;;;;;;;4.38;3.13;;;;;;;-0.14;64.93;94183.19;4943385;28;20437;-74
2021/12/14 00:36:07;;;;;;;4.55;2.90;;;;;;;0.21;64.65;94203.06;4943744;28;20039;-75
2021/12/14 00:38:35;;;;;;;4.65;3.15;;;;;;;0.33;64.47;94194.13;4942611;28;20445;-74
2021/12/14 00:41:09;;;;;;;4.53;3.55;;;;;;;0.30;63.32;94194.56;4947964;28;20223;-74
2021/12/14 00:43:34;;;;;;;3.15;2.78;;;;;;;0.13;63.31;94167.66;4951806;28;20038;-74
2021/12/14 00:46:00;;;;;;;3.50;2.97;;;;;;;0.25;63.13;94197.09;4948859;28;20398;-74
2021/12/14 00:48:26;;;;;;;3.03;2.72;;;;;;;0.16;63.42;94197.75;4952562;28;20042;-74
2021/12/14 00:50:56;;;;;;;7.13;4.15;;;;;;;0.17;63.41;94194.13;4953718;28;20038;-74
2021/12/14 00:53:23;;;;;;;4.88;3.70;;;;;;;0.06;63.57;94184.53;4949449;28;20039;-74
2021/12/14 00:55:50;;;;;;;4.88;3.28;;;;;;;-0.04;64.05;94187.78;4940961;28;21449;-74
2021/12/14 00:58:17;;;;;;;3.55;3.22;;;;;;;-0.04;64.28;94193.00;4952825;28;20076;-74
2021/12/14 01:00:47;;;;;;;3.92;3.28;;;;;;;-0.04;64.78;94200.09;4956400;28;20827;-74
2021/12/14 01:03:14;;;;;;;4.22;2.95;;;;;;;-0.25;64.73;94178.84;4956865;28;20049;-74
2021/12/14 01:05:46;;;;;;;5.93;3.80;;;;;;;-0.25;65.02;94139.63;4949555;28;20473;-74
2021/12/14 01:08:16;;;;;;;3.95;3.25;;;;;;;0.03;64.32;94198.88;4954812;28;20382;-74
2021/12/14 01:10:46;;;;;;;6.63;3.25;;;;;;;0.02;64.48;94191.25;4954935;28;20793;-74
2021/12/14 01:13:12;;;;;;;4.72;3.45;;;;;;;-0.11;64.62;94172.25;4957904;28;20022;-74
2021/12/14 01:15:53;;;;;;;5.40;3.50;;;;;;;0.15;64.23;94204.03;4953653;28;20557;-74
2021/12/14 01:18:34;;;;;;;5.20;3.30;;;;;;;0.18;63.93;94201.72;4953143;28;20149;-74
2021/12/14 01:22:11;;;;;;;3.58;2.38;;;;;;;0.10;63.90;94193.50;4936225;28;20157;-75
2021/12/14 01:24:05;;;;;;;3.78;2.80;;;;;;;0.11;64.20;94189.81;4947602;28;20065;-75
2021/12/14 01:26:33;;;;;;;3.63;3.33;;;;;;;0.16;64.02;94182.06;4947097;28;20039;-74
2021/12/14 01:29:00;;;;;;;4.55;3.50;;;;;;;0.08;63.99;94203.41;4952337;28;20042;-74
2021/12/14 01:31:33;;;;;;;4.80;3.08;;;;;;;-0.09;64.26;94193.72;4930990;28;20101;-74
2021/12/14 01:34:16;;;;;;;2.97;2.72;;;;;;;-0.31;64.98;94179.78;4955309;28;20037;-74
2021/12/14 01:36:47;;;;;;;3.90;3.60;;;;;;;-0.11;65.06;94200.22;4949708;28;20576;-74
2021/12/14 01:41:55;;;;;;;4.50;3.47;;;;;;;-0.21;65.42;94189.59;4958196;28;20047;-74
2021/12/14 01:44:31;;;;;;;3.97;3.40;;;;;;;-0.25;65.59;94186.69;4948454;28;20030;-73
2021/12/14 01:47:06;;;;;;;3.42;2.53;;;;;;;-0.52;65.75;94183.84;4952624;28;20066;-74
2021/12/14 01:49:32;;;;;;;4.40;3.30;;;;;;;-0.50;66.20;94191.47;4956404;28;20027;-74
2021/12/14 01:52:07;;;;;;;3.63;2.92;;;;;;;-0.75;66.61;94155.25;4951868;28;20030;-75
2021/12/14 01:54:38;;;;;;;2.67;2.47;;;;;;;-0.70;67.15;94196.31;4960665;28;20045;-73
2021/12/14 01:57:15;;;;;;;3.72;3.15;;;;;;;-0.68;67.64;94189.06;4955440;28;20515;-74
2021/12/14 01:59:44;;;;;;;2.60;2.40;;;;;;;-0.70;67.77;94193.72;4958010;28;20611;-73
2021/12/14 02:04:48;;;;;;;4.75;3.17;;;;;;;-0.91;68.22;94165.63;4950918;28;20105;-73
2021/12/14 02:07:17;;;;;;;4.57;3.58;;;;;;;-0.54;68.23;94190.34;4960161;28;20026;-75
2021/12/14 02:09:52;;;;;;;4.43;3.35;;;;;;;-0.44;68.23;94192.34;4938277;28;20581;-74
2021/12/14 02:12:20;;;;;;;;;;;;;;;-0.24;67.28;94197.94;4963980;28;20054;-75
2021/12/14 02:14:46;;;;;;;3.55;2.88;;;;;;;-0.25;66.74;94197.13;4956202;28;19918;-74
2021/12/14 02:17:16;;;;;;;6.18;4.00;;;;;;;-0.26;66.49;94192.94;4957139;28;20089;-75
2021/12/14 02:19:43;;;;;;;4.75;3.47;;;;;;;-0.29;66.18;94196.03;4955908;28;20085;-75
2021/12/14 02:22:09;;;;;;;5.10;3.30;;;;;;;-0.22;66.24;94191.41;4956341;28;20597;-75
2021/12/14 02:24:37;;;;;;;5.03;3.03;;;;;;;-0.44;65.95;94167.03;4952731;28;20594;-75
2021/12/14 02:27:03;;;;;;;4.28;3.10;;;;;;;-0.38;65.95;94171.28;4959693;28;20037;-74
2021/12/14 02:29:33;;;;;;;4.45;2.92;;;;;;;-0.23;66.23;94196.88;4953777;28;20047;-74
2021/12/14 02:32:10;;;;;;;3.95;3.35;;;;;;;-0.27;65.74;94162.59;4951112;28;20043;-74
2021/12/14 02:34:45;;;;;;;3.50;2.80;;;;;;;-0.16;65.91;94200.16;4929316;28;20732;-74
2021/12/14 02:37:12;;;;;;;4.63;3.47;;;;;;;-0.27;66.31;94172.25;4953802;28;20023;-74
2021/12/14 02:42:24;;;;;;;4.97;3.20;;;;;;;-0.23;65.91;94175.97;4948276;28;20537;-75
2021/12/14 02:44:54;;;;;;;4.35;3.33;;;;;;;-0.05;65.22;94201.09;4955290;28;20117;-75
2021/12/14 02:47:20;;;;;;;4.85;3.70;;;;;;;-0.07;65.48;94203.94;4948848;28;20050;-75
2021/12/14 02:49:48;;;;;;;6.25;3.67;;;;;;;-0.27;65.59;94178.25;4952446;28;21237;-75
2021/12/14 02:52:27;;;;;;;3.17;2.55;;;;;;;-0.09;65.91;94206.78;4950067;28;20396;-75
2021/12/14 02:54:55;;;;;;;5.50;3.53;;;;;;;0.01;65.66;94200.16;4951389;28;20043;-75
2021/12/14 02:57:25;;;;;;;4.95;3.38;;;;;;;-0.09;65.60;94195.53;4949078;28;20553;-74
2021/12/14 02:59:52;;;;;;;3.95;3.15;;;;;;;-0.26;66.07;94208.63;4952954;28;20082;-76
2021/12/14 03:02:21;;;;;;;3.80;2.90;;;;;;;-0.03;65.91;94210.28;4951557;28;20031;-75
2021/12/14 03:04:57;;;;;;;3.33;2.90;;;;;;;0.04;65.58;94205.69;4950911;28;20440;-76
2021/12/14 03:07:26;;;;;;;4.47;3.63;;;;;;;-0.01;65.66;94212.66;4955660;28;21205;-75
2021/12/14 03:09:59;;;;;;;4.60;3.35;;;;;;;-0.05;65.75;94212.34;4952672;28;20039;-75
2021/12/14 03:12:35;;;;;;;3.15;2.72;;;;;;;-0.23;65.70;94162.91;4954166;28;20429;-75
2021/12/14 03:15:19;;;;;;;4.45;3.80;;;;;;;0.05;65.46;94196.84;4948395;28;20393;-75
2021/12/14 03:17:49;;;;;;;5.85;3.53;;;;;;;0.17;65.49;94194.91;4935719;28;20171;-75
2021/12/14 03:20:24;;;;;;;2.92;2.63;;;;;;;0.39;65.21;94218.53;4957693;28;20042;-74
2021/12/14 03:23:08;;;;;;;9.38;3.03;;;;;;;0.43;64.80;94216.22;4949346;28;20505;-75
2021/12/14 03:25:36;;;;;;;4.75;3.22;;;;;;;0.28;64.17;94217.59;4947607;28;20019;-75
2021/12/14 03:28:02;;;;;;;4.70;3.63;;;;;;;0.23;64.21;94209.66;4944988;28;20429;-75
2021/12/14 03:31:02;;;;;;;5.88;3.55;;;;;;;0.05;65.18;94206.50;4953841;28;20530;-74
2021/12/14 03:33:34;;;;;;;5.63;3.35;;;;;;;0.06;65.15;94208.84;4952695;28;20077;-75
2021/12/14 03:36:04;;;;;;;6.40;4.10;;;;;;;-0.01;65.61;94212.66;4944252;28;20054;-75
2021/12/14 03:38:43;;;;;;;4.00;3.30;;;;;;;0.09;66.08;94218.06;4944612;28;20062;-75
2021/12/14 03:41:17;;;;;;;4.00;3.38;;;;;;;0.01;65.92;94215.84;4948328;28;20053;-75
2021/12/14 03:43:51;;;;;;;7.23;3.87;;;;;;;-0.13;66.56;94197.84;4953205;28;20042;-75
2021/12/14 03:46:17;;;;;;;3.05;2.72;;;;;;;0.01;66.10;94200.94;4953848;28;20049;-74
2021/12/14 03:48:42;;;;;;;5.10;2.95;;;;;;;0.08;65.98;94206.00;4939534;28;20444;-74
2021/12/14 03:51:08;;;;;;;5.10;3.55;;;;;;;0.14;65.90;94202.44;4944577;28;20038;-75
2021/12/14 03:53:34;;;;;;;3.85;3.10;;;;;;;0.13;65.46;94193.81;4942375;28;20050;-75
2021/12/14 03:56:04;;;;;;;5.75;4.07;;;;;;;0.26;65.68;94224.06;4952410;28;20076;-75
2021/12/14 03:58:38;;;;;;;4.25;3.50;;;;;;;0.08;65.34;94187.69;4952548;28;20597;-74
2021/12/14 04:01:20;;;;;;;4.35;2.88;;;;;;;0.23;65.41;94211.47;4957702;28;20027;-75
2021/12/14 04:03:49;;;;;;;4.97;2.75;;;;;;;0.16;64.92;94208.22;4949628;28;20055;-75
2021/12/14 04:06:18;;;;;;;4.80;3.33;;;;;;;0.14;65.44;94226.00;4942248;28;20035;-75
2021/12/14 04:08:44;;;;;;;5.38;4.43;;;;;;;-0.08;66.16;94225.88;4946402;28;20591;-75
2021/12/14 04:11:11;;;;;;;3.33;3.00;;;;;;;0.02;66.52;94231.28;4945560;28;20760;-74
2021/12/14 04:13:46;;;;;;;5.82;2.58;;;;;;;-0.08;66.72;94218.84;4949361;28;20037;-75
2021/12/14 04:16:16;;;;;;;4.35;3.40;;;;;;;0.10;66.61;94235.34;4949383;28;20030;-74
2021/12/14 04:18:42;;;;;;;6.50;4.60;;;;;;;-0.11;66.85;94237.63;4955949;28;20169;-75
2021/12/14 04:21:08;;;;;;;6.63;4.75;;;;;;;-0.07;66.93;94236.13;4929366;28;20035;-75
2021/12/14 04:23:38;;;;;;;5.88;4.35;;;;;;;-0.18;67.21;94234.34;4948969;28;20054;-75
2021/12/14 04:26:06;;;;;;;4.15;3.47;;;;;;;-0.20;67.47;94244.28;4943907;28;20049;-75
2021/12/14 04:28:37;;;;;;;4.32;3.10;;;;;;;-0.07;67.20;94241.34;4950807;28;20027;-74
2021/12/14 04:31:05;;;;;;;4.25;3.85;;;;;;;-0.07;67.22;94232.72;4953334;28;20025;-75
2021/12/14 04:33:35;;;;;;;3.40;3.10;;;;;;;-0.03;67.15;94219.94;4934300;28;20121;-75
2021/12/14 04:36:04;;;;;;;6.05;4.00;;;;;;;0.01;66.82;94247.22;4952027;28;20035;-75
2021/12/14 04:38:32;;;;;;;5.68;4.95;;;;;;;-0.02;66.91;94243.25;4949164;28;20034;-74
2021/12/14 04:52:23;;;;;;;5.53;3.53;;;;;;;-0.49;68.74;94247.13;4952695;28;20914;-74
2021/12/14 04:55:08;;;;;;;4.38;2.97;;;;;;;-0.40;69.57;94256.97;4955850;28;20106;-74
2021/12/14 04:57:43;;;;;;;5.43;3.70;;;;;;;-0.30;69.00;94249.31;4954818;28;20042;-74
2021/12/14 05:00:21;;;;;;;4.10;3.42;;;;;;;-0.37;69.19;94251.28;4959485;28;20413;-74
2021/12/14 05:02:48;;;;;;;4.85;3.85;;;;;;;-0.30;69.31;94251.94;4951279;28;20466;-74
2021/12/14 05:05:20;;;;;;;6.32;4.40;;;;;;;-0.32;68.88;94240.13;4950734;28;20038;-74
2021/12/14 05:09:20;;;;;;;10.15;4.65;;;;;;;-0.40;69.19;94235.28;4956770;28;20512;-75
2021/12/14 05:10:53;;;;;;;6.47;4.85;;;;;;;-0.21;68.96;94244.50;4950604;28;20046;-75
2021/12/14 05:13:35;;;;;;;6.32;4.03;;;;;;;-0.20;68.64;94246.88;4954008;28;20561;-75
2021/12/14 05:16:03;;;;;;;5.05;3.75;;;;;;;-0.19;68.54;94260.75;4947678;28;20039;-74
2021/12/14 05:18:29;;;;;;;13.73;6.95;;;;;;;-0.28;68.66;94255.09;4960009;28;20039;-74
2021/12/14 05:20:54;;;;;;;6.40;4.30;;;;;;;-0.31;68.99;94258.19;4957181;28;20133;-75
2021/12/14 05:23:24;;;;;;;5.95;3.90;;;;;;;-0.36;68.65;94252.06;4954189;28;20035;-74
2021/12/14 05:25:50;;;;;;;7.00;4.45;;;;;;;-0.34;68.45;94248.22;4938128;28;20667;-75
2021/12/14 05:28:18;;;;;;;10.75;6.47;;;;;;;-0.44;68.33;94226.31;4957635;28;20034;-74
2021/12/14 05:30:46;;;;;;;22.67;9.18;;;;;;;-0.45;69.02;94243.81;4950635;28;20039;-74
2021/12/14 05:33:23;;;;;;;20.70;10.15;;;;;;;-0.39;68.52;94263.00;4955174;28;20096;-75
2021/12/14 05:35:52;;;;;;;14.43;7.43;;;;;;;-0.37;68.33;94266.16;4947496;28;20126;-73
2021/12/14 05:38:23;;;;;;;15.43;8.77;;;;;;;-0.38;68.43;94260.13;4954912;28;20035;-74
2021/12/14 05:43:19;;;;;;;11.30;6.72;;;;;;;-0.55;69.18;94254.09;4948311;28;20026;-75
2021/12/14 05:45:53;;;;;;;5.35;4.80;;;;;;;-0.39;68.97;94269.03;4934874;28;20480;-76
2021/12/14 05:48:29;;;;;;;7.55;4.45;;;;;;;-0.49;69.03;94274.06;4940795;28;20031;-75
2021/12/14 05:50:59;;;;;;;7.07;4.78;;;;;;;-0.51;69.46;94265.66;4952192;28;20097;-75
2021/12/14 05:53:33;;;;;;;6.30;5.18;;;;;;;-0.38;68.59;94275.81;4942037;28;20447;-75
2021/12/14 05:56:02;;;;;;;7.30;5.10;;;;;;;-0.45;68.98;94280.41;4948292;28;20039;-76
2021/12/14 05:58:28;;;;;;;7.20;4.82;;;;;;;-0.49;69.10;94253.16;4946019;28;20061;-74
2021/12/14 06:01:01;;;;;;;7.75;4.20;;;;;;;-0.30;68.51;94277.28;4946936;28;20614;-75
2021/12/14 06:03:33;;;;;;;6.53;4.68;;;;;;;-0.30;68.60;94282.50;4952430;28;20043;-75
2021/12/14 06:06:00;;;;;;;6.47;3.95;;;;;;;-0.23;68.55;94289.16;4947079;28;20241;-75
2021/12/14 06:08:33;;;;;;;10.50;5.57;;;;;;;-0.05;68.05;94287.38;4950026;28;20050;-75
2021/12/14 06:11:00;;;;;;;6.10;4.10;;;;;;;0.06;67.42;94289.13;4948680;28;20501;-75
2021/12/14 06:13:41;;;;;;;5.25;3.88;;;;;;;0.08;67.15;94289.69;4942641;28;20026;-74
2021/12/14 06:16:08;;;;;;;9.05;4.22;;;;;;;0.19;66.88;94292.25;4948887;28;20031;-75
2021/12/14 06:18:34;;;;;;;4.97;3.42;;;;;;;0.34;66.94;94287.28;4952866;28;20650;-75
2021/12/14 06:20:59;;;;;;;4.57;4.18;;;;;;;0.45;66.05;94280.34;4952444;28;20085;-75
2021/12/14 06:23:27;;;;;;;5.57;3.75;;;;;;;0.36;65.42;94287.03;4948329;28;20114;-74
2021/12/14 06:25:52;;;;;;;6.53;4.30;;;;;;;0.16;65.35;94255.31;4947161;28;20520;-75
2021/12/14 06:28:26;;;;;;;5.28;3.63;;;;;;;0.27;65.30;94304.16;4948636;28;20027;-75
2021/12/14 06:30:52;;;;;;;7.88;4.55;;;;;;;0.31;65.78;94294.78;4947362;28;20470;-75
2021/12/14 06:33:31;;;;;;;8.48;4.43;;;;;;;0.48;65.39;94290.38;4952446;28;20068;-75
2021/12/14 06:36:00;;;;;;;10.00;6.65;;;;;;;0.59;64.53;94301.78;4947262;28;20058;-74
2021/12/14 06:38:34;;;;;;;7.40;4.30;;;;;;;0.34;64.45;94276.81;4951923;28;20065;-74
2021/12/14 06:41:13;;;;;;;7.10;4.20;;;;;;;0.66;64.36;94307.63;4947569;28;20053;-75
2021/12/14 06:43:47;;;;;;;5.35;4.03;;;;;;;0.56;64.23;94308.28;4952711;28;20060;-74
2021/12/14 06:46:19;;;;;;;5.45;4.47;;;;;;;0.56;64.67;94303.03;4949415;28;20396;-76
2021/12/14 06:48:49;;;;;;;6.20;4.45;;;;;;;0.45;64.05;94280.34;4959368;28;20518;-75
2021/12/14 06:51:24;;;;;;;10.00;4.88;;;;;;;0.69;64.47;94318.41;4960589;28;20030;-73
2021/12/14 06:53:54;;;;;;;6.85;4.35;;;;;;;0.40;64.27;94282.13;4960495;28;20153;-74
2021/12/14 06:56:22;;;;;;;4.78;3.67;;;;;;;0.71;64.22;94313.75;4960709;28;20035;-73
2021/12/14 06:59:03;;;;;;;5.45;4.10;;;;;;;0.61;63.82;94302.31;4953309;28;20511;-75
2021/12/14 07:01:34;;;;;;;7.55;4.28;;;;;;;0.73;64.35;94329.22;4956565;28;20448;-74
2021/12/14 07:04:12;;;;;;;10.75;6.22;;;;;;;0.61;64.22;94310.97;4961976;28;20030;-75
2021/12/14 07:06:41;;;;;;;9.40;4.90;;;;;;;0.79;63.95;94317.78;4957444;28;20059;-75
2021/12/14 07:09:35;;;;;;;15.45;7.07;;;;;;;0.71;64.02;94323.41;4952528;28;20634;-75
2021/12/14 07:12:23;;;;;;;9.75;5.78;;;;;;;0.51;64.83;94312.63;4951820;28;20102;-74
2021/12/14 07:14:49;;;;;;;5.70;4.82;;;;;;;0.65;65.03;94332.22;4956313;28;20577;-75
2021/12/14 07:17:27;;;;;;;10.13;5.32;;;;;;;0.53;65.28;94332.31;4955898;28;20062;-75
2021/12/14 07:19:55;;;;;;;5.45;4.47;;;;;;;0.60;65.45;94330.31;4950334;28;20314;-74
2021/12/14 07:22:30;;;;;;;6.07;4.60;;;;;;;0.70;65.73;94332.31;4933786;28;20026;-75
2021/12/14 07:25:07;;;;;;;5.22;3.95;;;;;;;0.71;65.06;94337.31;4953362;28;21140;-74
2021/12/14 07:27:50;;;;;;;6.53;4.32;;;;;;;0.63;65.44;94342.16;4953349;28;20059;-74
2021/12/14 07:30:38;;;;;;;6.72;4.38;;;;;;;0.75;65.35;94338.41;4941009;28;20043;-73
2021/12/14 07:33:14;;;;;;;6.20;4.82;;;;;;;0.83;65.33;94345.09;4956799;28;20641;-75
2021/12/14 07:35:48;;;;;;;9.93;5.25;;;;;;;0.87;65.44;94340.94;4954350;28;20566;-74
2021/12/14 07:38:20;;;;;;;7.73;4.90;;;;;;;0.92;65.49;94342.84;4951837;28;20046;-75
2021/12/14 07:41:12;;;;;;;5.80;4.53;;;;;;;0.70;64.85;94291.22;4952048;28;20116;-75
2021/12/14 07:43:55;;;;;;;9.55;6.35;;;;;;;0.91;64.85;94330.78;4951640;28;20023;-74
2021/12/14 07:46:27;;;;;;;12.05;6.20;;;;;;;0.99;64.42;94359.19;4953982;28;20508;-75
2021/12/14 07:49:03;;;;;;;7.57;5.72;;;;;;;1.15;64.25;94353.94;4956718;28;20502;-75
2021/12/14 07:51:33;;;;;;;8.23;5.55;;;;;;;1.27;63.70;94350.41;4956682;28;20382;-75
2021/12/14 07:54:03;;;;;;;6.22;4.97;;;;;;;1.10;63.27;94329.47;4952162;28;20133;-75
2021/12/14 07:56:37;;;;;;;5.60;4.45;;;;;;;1.19;63.57;94344.53;4958315;28;20589;-75
2021/12/14 07:59:18;;;;;;;7.93;5.03;;;;;;;1.19;63.99;94362.88;4957753;28;20043;-75
2021/12/14 08:01:46;;;;;;;6.95;5.00;;;;;;;1.08;63.33;94334.19;4949052;28;20416;-75
2021/12/14 08:04:12;;;;;;;5.53;3.88;;;;;;;1.10;63.89;94338.13;4956584;28;20035;-76
2021/12/14 08:06:46;;;;;;;7.43;4.95;;;;;;;1.24;63.14;94341.19;4939298;28;20453;-75
2021/12/14 08:09:17;;;;;;;12.10;5.47;;;;;;;1.32;63.21;94359.16;4934042;28;20027;-75
2021/12/14 08:11:49;;;;;;;10.05;4.65;;;;;;;1.33;63.23;94373.81;4954356;28;20116;-75
2021/12/14 08:14:22;;;;;;;9.43;5.20;;;;;;;1.30;63.94;94379.53;4946868;28;20133;-74
2021/12/14 08:16:53;;;;;;;6.97;4.25;;;;;;;1.42;63.40;94372.38;4948890;28;20050;-75
2021/12/14 08:19:42;;;;;;;9.68;4.78;;;;;;;1.53;63.22;94375.91;4951430;28;20027;-75
2021/12/14 08:22:27;;;;;;;7.85;3.97;;;;;;;1.48;63.31;94373.22;4951022;28;20046;-75
2021/12/14 08:24:53;;;;;;;13.82;7.60;;;;;;;1.55;62.37;94363.34;4953407;28;20050;-75
2021/12/14 08:27:22;;;;;;;7.90;5.80;;;;;;;1.41;62.46;94357.69;4950797;28;20054;-74
2021/12/14 08:29:53;;;;;;;9.52;6.18;;;;;;;1.59;62.36;94373.13;4931758;28;20073;-75
2021/12/14 08:32:23;;;;;;;10.02;6.10;;;;;;;1.47;62.74;94372.41;4950894;28;20411;-75
2021/12/14 08:34:52;;;;;;;8.55;5.45;;;;;;;1.51;63.70;94378.00;4953954;28;20034;-75
2021/12/14 08:37:28;;;;;;;12.75;5.80;;;;;;;1.59;63.50;94372.31;4951766;28;20490;-75
2021/12/14 08:40:00;;;;;;;10.23;6.43;;;;;;;1.83;62.97;94367.63;4945127;28;21049;-74
2021/12/14 08:42:54;;;;;;;10.70;5.88;;;;;;;1.93;62.61;94375.63;4950590;28;20444;-76
2021/12/14 08:45:26;;;;;;;8.65;6.05;;;;;;;2.14;61.65;94366.16;4933922;28;20054;-76
2021/12/14 08:48:19;;;;;;;11.43;6.20;;;;;;;2.14;61.49;94372.22;4950958;28;20038;-76
2021/12/14 08:50:59;;;;;;;8.70;5.38;;;;;;;2.14;60.54;94343.34;4951499;28;20493;-74
2021/12/14 08:53:29;;;;;;;9.77;6.22;;;;;;;2.16;60.52;94364.88;4945216;28;20098;-75
2021/12/14 08:55:58;;;;;;;11.43;6.60;;;;;;;2.00;60.68;94342.94;4932704;28;20049;-75
2021/12/14 08:58:26;;;;;;;11.35;7.07;;;;;;;2.15;60.81;94368.56;4953621;28;20030;-74
2021/12/14 09:00:58;;;;;;;13.88;6.90;;;;;;;2.14;60.66;94356.47;4948456;28;20408;-75
2021/12/14 09:03:33;;;;;;;13.95;8.57;;;;;;;2.30;60.55;94363.47;4929774;28;20041;-76
2021/12/14 09:06:21;;;;;;;11.27;6.28;;;;;;;2.17;60.64;94361.22;4953021;28;20109;-76
2021/12/14 09:08:49;;;;;;;11.98;7.07;;;;;;;2.04;61.33;94349.28;4949494;28;20494;-75
2021/12/14 09:11:19;;;;;;;10.63;7.32;;;;;;;2.14;61.30;94345.97;4952274;28;20508;-75
2021/12/14 09:13:45;;;;;;;12.95;7.65;;;;;;;2.02;61.74;94332.19;4941188;28;21478;-75
2021/12/14 09:16:25;;;;;;;14.05;7.85;;;;;;;2.17;61.37;94345.47;4953876;28;20081;-75
2021/12/14 09:18:57;;;;;;;12.18;7.07;;;;;;;2.41;61.39;94362.50;4953971;28;20035;-75
2021/12/14 09:21:30;;;;;;;13.80;7.45;;;;;;;2.49;61.08;94348.13;4949199;28;20043;-75
2021/12/14 09:23:59;;;;;;;10.57;7.05;;;;;;;2.44;60.95;94340.22;4937928;28;20100;-75
2021/12/14 09:26:31;;;;;;;11.27;7.28;;;;;;;2.50;60.46;94347.88;4947571;28;20043;-75
2021/12/14 09:28:57;;;;;;;11.15;7.03;;;;;;;2.51;59.72;94327.66;4948222;28;20038;-76
2021/12/14 09:31:26;;;;;;;13.95;7.38;;;;;;;2.40;59.79;94311.03;4946991;28;20481;-75
2021/12/14 09:33:57;;;;;;;15.00;7.93;;;;;;;2.52;60.22;94342.38;4947787;28;20062;-75
2021/12/14 09:36:23;;;;;;;14.77;6.90;;;;;;;2.51;60.17;94317.16;4946240;28;20740;-76
2021/12/14 09:39:03;;;;;;;8.68;6.53;;;;;;;2.59;59.82;94332.47;4945539;28;20350;-75
2021/12/14 09:41:33;;;;;;;10.98;7.25;;;;;;;2.48;59.71;94336.84;4927815;28;20038;-75
2021/12/14 09:44:04;;;;;;;11.93;6.80;;;;;;;2.51;59.77;94331.06;4922408;28;20043;-76
2021/12/14 09:46:32;;;;;;;12.32;7.95;;;;;;;2.53;60.21;94334.25;4948758;28;20101;-75
2021/12/14 09:49:01;;;;;;;12.02;7.35;;;;;;;2.67;60.14;94323.31;4940697;28;20027;-75
2021/12/14 09:51:37;;;;;;;15.43;7.45;;;;;;;2.19;60.27;94259.41;4944888;28;20066;-75
2021/12/14 09:54:07;;;;;;;15.90;8.88;;;;;;;2.72;59.63;94315.50;4945453;28;20038;-75
2021/12/14 09:56:38;;;;;;;17.77;9.40;;;;;;;2.61;59.38;94324.31;4949429;28;20038;-75
2021/12/14 09:59:05;;;;;;;13.00;8.40;;;;;;;2.52;60.33;94319.53;4936720;28;20074;-75
2021/12/14 10:01:56;;;;;;;19.70;11.95;;;;;;;2.60;60.23;94320.13;4941780;28;20034;-74
2021/12/14 10:04:28;;;;;;;14.65;8.73;;;;;;;2.44;60.26;94299.00;4953071;28;20072;-75
2021/12/14 10:06:56;;;;;;;15.43;8.88;;;;;;;2.55;60.70;94314.84;4951059;28;20621;-74
2021/12/14 10:09:26;;;;;;;13.90;7.90;;;;;;;2.65;59.98;94299.13;4956748;28;20173;-75
2021/12/14 10:12:14;;;;;;;15.60;8.52;;;;;;;2.88;59.89;94319.81;4948737;28;20042;-75
2021/12/14 10:14:40;;;;;;;19.73;8.93;;;;;;;2.78;59.14;94311.88;4955993;28;20137;-75
2021/12/14 10:17:10;;;;;;;20.40;9.82;;;;;;;2.92;59.70;94313.00;4951735;28;20524;-75
2021/12/14 10:19:37;;;;;;;14.60;8.00;;;;;;;2.93;59.56;94312.75;4961228;28;20529;-75
2021/12/14 10:22:31;;;;;;;13.73;7.68;;;;;;;2.96;59.42;94314.09;4958799;28;20023;-75
2021/12/14 10:25:05;;;;;;;15.55;8.38;;;;;;;3.01;59.46;94303.59;4960489;28;20101;-74
2021/12/14 10:27:33;;;;;;;10.70;7.57;;;;;;;3.15;58.85;94299.47;4958988;28;20035;-75
2021/12/14 10:30:01;;;;;;;17.00;9.38;;;;;;;3.23;58.84;94308.72;4958261;28;20712;-74
2021/12/14 10:32:30;;;;;;;16.77;9.38;;;;;;;3.26;58.60;94301.13;4960986;28;20042;-74
2021/12/14 10:35:01;;;;;;;16.48;9.23;;;;;;;3.20;57.90;94296.88;4961723;28;20034;-74
2021/12/14 10:37:40;;;;;;;15.57;9.23;;;;;;;3.09;58.51;94312.84;4962466;28;20062;-74
2021/12/14 10:43:07;;;;;;;15.40;9.82;;;;;;;2.92;59.42;94290.16;4962066;28;20182;-74
2021/12/14 10:45:34;;;;;;;17.83;10.70;;;;;;;3.19;59.02;94295.28;4952576;28;20595;-74
2021/12/14 10:48:00;;;;;;;14.75;8.70;;;;;;;2.99;59.23;94310.16;4953943;28;20050;-75
2021/12/14 10:50:31;;;;;;;19.15;9.82;;;;;;;3.09;58.92;94305.75;4952415;28;20046;-75
2021/12/14 10:52:57;;;;;;;22.63;10.75;;;;;;;3.08;58.88;94298.13;4955646;28;20097;-75
2021/12/14 10:55:32;;;;;;;21.60;10.48;;;;;;;2.94;58.93;94276.75;4955316;28;20040;-74
2021/12/14 10:57:57;;;;;;;24.45;11.15;;;;;;;2.92;58.71;94278.84;4953442;28;20038;-75
2021/12/14 11:00:38;;;;;;;34.72;17.08;;;;;;;2.95;59.01;94301.97;4951429;28;20809;-75
2021/12/14 11:03:11;;;;;;;24.85;13.18;;;;;;;2.82;59.58;94294.53;4936473;28;20038;-75
2021/12/14 11:05:38;;;;;;;18.02;10.80;;;;;;;2.59;60.24;94292.28;4955042;28;20481;-75
2021/12/14 11:08:10;;;;;;;16.90;10.18;;;;;;;2.78;60.09;94291.66;4955702;28;20043;-75
2021/12/14 11:10:39;;;;;;;17.30;10.27;;;;;;;2.62;60.25;94274.19;4934974;28;20045;-74
2021/12/14 11:13:11;;;;;;;12.35;9.15;;;;;;;2.61;60.00;94282.31;4954629;28;20393;-75
2021/12/14 11:15:44;;;;;;;15.18;9.55;;;;;;;2.66;60.19;94287.59;4951882;28;20043;-75
2021/12/14 11:18:16;;;;;;;17.50;10.65;;;;;;;2.46;60.52;94270.66;4953667;28;20037;-74
2021/12/14 11:20:44;;;;;;;19.75;10.27;;;;;;;2.43;61.09;94286.91;4951171;28;20046;-75
2021/12/14 11:23:29;;;;;;;16.85;10.82;;;;;;;2.75;60.53;94286.88;4953021;28;20045;-75
2021/12/14 11:26:04;;;;;;;16.83;10.05;;;;;;;2.71;60.25;94262.16;4954612;28;20078;-74
2021/12/14 11:28:38;;;;;;;19.77;10.60;;;;;;;2.75;60.35;94281.63;4953996;28;20305;-74
2021/12/14 11:31:25;;;;;;;19.70;11.50;;;;;;;2.50;60.52;94247.31;4953055;28;20505;-75
2021/12/14 11:34:09;;;;;;;20.13;10.23;;;;;;;2.75;60.56;94283.44;4936790;28;20137;-75
2021/12/14 11:36:39;;;;;;;19.85;10.88;;;;;;;2.79;59.94;94276.69;4933988;28;20074;-75
2021/12/14 11:39:23;;;;;;;21.98;12.07;;;;;;;2.75;60.29;94278.19;4954668;28;20605;-74
2021/12/14 11:42:09;;;;;;;19.90;10.02;;;;;;;2.82;60.36;94273.53;4936155;28;20054;-75
2021/12/14 11:44:45;;;;;;;16.67;9.68;;;;;;;2.82;59.76;94273.53;4950461;28;20043;-75
2021/12/14 11:47:32;;;;;;;;;;;;;;;2.73;60.12;94280.31;4952857;28;20145;-75
2021/12/14 11:50:04;;;;;;;25.05;10.98;;;;;;;2.73;60.36;94275.06;4953955;28;19926;-74
2021/12/14 11:52:35;;;;;;;23.80;11.43;;;;;;;2.71;60.36;94271.88;4956029;28;20057;-74
2021/12/14 11:55:34;;;;;;;21.30;11.05;;;;;;;2.62;60.54;94274.19;4953641;28;20027;-75
2021/12/14 11:58:31;;;;;;;21.38;12.23;;;;;;;2.51;61.33;94281.19;4954957;28;20089;-74
2021/12/14 12:01:06;;;;;;;21.05;10.50;;;;;;;2.68;61.03;94272.38;4938327;28;20046;-74
2021/12/14 12:03:47;;;;;;;25.55;11.80;;;;;;;2.90;60.30;94255.44;4956253;28;20053;-74
2021/12/14 12:06:34;;;;;;;23.23;11.15;;;;;;;2.83;60.00;94260.16;4960695;28;20070;-73
2021/12/14 12:09:30;;;;;;;17.20;9.13;;;;;;;2.73;59.31;94243.53;4982611;28;20026;-73
2021/12/14 12:12:07;;;;;;;12.32;8.50;;;;;;;2.74;59.47;94271.38;4980329;28;20107;-76
2021/12/14 12:14:52;;;;;;;18.38;9.20;;;;;;;2.73;60.01;94264.53;4983644;28;20071;-72
2021/12/14 12:17:34;;;;;;;21.88;9.95;;;;;;;2.58;60.00;94243.44;4979632;28;20078;-76
2021/12/14 12:20:24;;;;;;;21.60;9.93;;;;;;;2.78;60.12;94269.84;4984009;28;20035;-77
2021/12/14 12:22:56;;;;;;;23.02;14.38;;;;;;;2.91;59.80;94266.75;4976807;28;20031;-74
2021/12/14 12:25:32;;;;;;;18.63;10.10;;;;;;;2.78;59.52;94243.56;4958689;28;20007;-75
2021/12/14 12:28:05;;;;;;;16.73;8.20;;;;;;;2.82;59.48;94265.66;4978211;28;20054;-77
2021/12/14 12:30:49;;;;;;;16.98;8.23;;;;;;;2.75;60.18;94267.69;4972540;28;20023;-73